Time;durP1;ratioP1;P1;durP2;ratioP2;P2;SDS_P1;SDS_P2;PMS_P1;PMS_P2;Temp;Humidity;BMP_temperature;BMP_pressure;BME280_temperature;BME280_humidity;BME280_pressure;Samples;Min_cycle;Max_cycle;Signal;HPM_P1;HPM_P2
2023/01/02 00:01:14;;;;;;;5.90;2.55;;;;;;;18.72;50.96;100927.47;5084823;28;20055;-59
2023/01/02 00:03:39;;;;;;;4.45;2.38;;;;;;;18.72;51.42;100932.88;5073695;28;20036;-59
2023/01/02 00:06:06;;;;;;;3.72;2.22;;;;;;;18.72;50.94;100940.09;5063724;28;20767;-59
2023/01/02 00:08:31;;;;;;;3.63;2.22;;;;;;;18.71;51.23;100941.97;5092756;28;20032;-59
2023/01/02 00:10:56;;;;;;;3.38;1.95;;;;;;;18.68;50.98;100931.47;5063965;28;20032;-59
2023/01/02 00:13:22;;;;;;;4.00;2.10;;;;;;;18.70;51.24;100936.75;5063279;28;20021;-59
2023/01/02 00:15:47;;;;;;;3.92;2.58;;;;;;;18.62;51.04;100921.38;5064465;28;20056;-59
2023/01/02 00:18:12;;;;;;;3.13;2.25;;;;;;;18.69;51.19;100938.59;5064719;28;20029;-58
2023/01/02 00:20:37;;;;;;;4.10;2.28;;;;;;;18.69;51.06;100935.91;5075021;28;20040;-59
2023/01/02 00:23:03;;;;;;;3.38;2.58;;;;;;;18.67;51.05;100920.88;5065668;28;20033;-59
2023/01/02 00:25:28;;;;;;;4.00;2.13;;;;;;;18.68;50.96;100911.78;5063892;28;20096;-59
2023/01/02 00:27:55;;;;;;;3.33;2.25;;;;;;;18.68;51.23;100917.19;5064782;28;20029;-59
2023/01/02 00:30:20;;;;;;;3.20;2.05;;;;;;;18.66;51.21;100906.59;5064066;28;20075;-59
2023/01/02 00:32:45;;;;;;;5.57;2.95;;;;;;;18.62;51.24;100907.09;5063214;28;20436;-59
2023/01/02 00:35:10;;;;;;;2.72;1.90;;;;;;;18.62;51.17;100896.31;5084487;28;20032;-59
2023/01/02 00:37:36;;;;;;;2.95;1.77;;;;;;;18.64;50.96;100900.50;5084573;28;20025;-59
2023/01/02 00:40:01;;;;;;;3.25;1.80;;;;;;;18.63;51.01;100903.38;5063668;28;20088;-58
2023/01/02 00:42:26;;;;;;;3.67;1.90;;;;;;;18.64;50.86;100897.81;5064518;28;20021;-59
2023/01/02 00:44:52;;;;;;;3.00;2.00;;;;;;;18.64;50.97;100897.81;5082084;28;20044;-59
2023/01/02 00:47:17;;;;;;;5.07;2.42;;;;;;;18.64;51.01;100899.66;5084589;28;20032;-59
2023/01/02 00:49:42;;;;;;;3.25;2.17;;;;;;;18.55;50.94;100879.97;5083792;28;20055;-59
2023/01/02 00:52:07;;;;;;;3.05;2.10;;;;;;;18.63;51.00;100885.38;5084318;28;20080;-59
2023/01/02 00:54:32;;;;;;;3.22;2.30;;;;;;;18.63;51.06;100881.84;5067865;28;20055;-59
2023/01/02 00:56:58;;;;;;;3.30;1.90;;;;;;;18.63;50.90;100887.22;5067424;28;20036;-59
2023/01/02 00:59:23;;;;;;;2.85;1.95;;;;;;;18.61;50.72;100889.25;5068191;28;20056;-59
2023/01/02 01:01:48;;;;;;;2.67;2.10;;;;;;;18.61;51.11;100886.56;5068240;28;20028;-58
2023/01/02 01:04:14;;;;;;;2.75;1.88;;;;;;;18.59;51.16;100877.78;5080800;28;20021;-60
2023/01/02 01:06:39;;;;;;;3.45;1.95;;;;;;;18.59;51.02;100884.00;5087324;28;20050;-59
2023/01/02 01:09:04;;;;;;;2.80;1.80;;;;;;;18.60;51.28;100871.38;5067978;28;20027;-59
2023/01/02 01:11:30;;;;;;;3.35;2.05;;;;;;;18.52;50.98;100858.78;5067493;28;20040;-58
2023/01/02 01:13:55;;;;;;;2.50;2.00;;;;;;;18.58;50.66;100879.66;5068125;28;20021;-59
2023/01/02 01:16:20;;;;;;;3.75;2.03;;;;;;;18.58;51.00;100876.13;5067860;28;20108;-59
2023/01/02 01:18:46;;;;;;;3.92;2.20;;;;;;;18.58;50.88;100878.81;5067652;28;20031;-59
2023/01/02 01:21:17;;;;;;;6.40;2.20;;;;;;;18.58;50.84;100873.44;5087295;28;20039;-59
2023/01/02 01:23:42;;;;;;;3.13;2.10;;;;;;;18.57;50.87;100874.44;5077342;28;20055;-59
2023/01/02 01:26:10;;;;;;;3.38;1.90;;;;;;;18.57;51.02;100875.28;5070149;28;20056;-59
2023/01/02 01:28:36;;;;;;;4.25;2.30;;;;;;;18.55;50.75;100871.06;5067726;28;20107;-59
2023/01/02 01:31:03;;;;;;;3.20;2.03;;;;;;;18.57;50.86;100877.13;5067398;28;20469;-59
2023/01/02 01:33:30;;;;;;;2.97;2.00;;;;;;;18.56;50.85;100880.81;5071925;28;20084;-59
2023/01/02 01:36:02;;;;;;;2.92;1.85;;;;;;;18.45;50.97;100858.59;5087552;28;20036;-59
2023/01/02 01:38:28;;;;;;;3.58;2.17;;;;;;;18.56;50.85;100872.72;5078191;28;20028;-59
2023/01/02 01:40:53;;;;;;;2.17;1.95;;;;;;;18.53;50.67;100867.69;5066888;28;20033;-59
2023/01/02 01:43:42;;;;;;;2.30;1.85;;;;;;;18.55;50.70;100871.88;5067189;28;20508;-58
2023/01/02 01:46:32;;;;;;;3.65;2.15;;;;;;;18.54;50.82;100870.22;5067236;28;20025;-59
2023/01/02 01:49:19;;;;;;;3.28;2.25;;;;;;;18.53;51.04;100865.00;5059731;28;20057;-59
2023/01/02 01:52:03;;;;;;;3.00;1.90;;;;;;;18.55;50.84;100871.06;5065746;28;20071;-59
2023/01/02 01:54:38;;;;;;;2.42;1.83;;;;;;;18.52;50.65;100866.00;5065276;28;20033;-59
2023/01/02 01:57:20;;;;;;;3.38;1.83;;;;;;;18.52;51.05;100860.63;5067450;28;20089;-59
2023/01/02 01:59:45;;;;;;;2.85;1.95;;;;;;;18.51;50.90;100853.56;5062812;28;20394;-60
2023/01/02 02:02:11;;;;;;;2.83;1.85;;;;;;;18.51;50.90;100853.56;5047139;28;20025;-59
2023/01/02 02:04:36;;;;;;;3.53;1.95;;;;;;;18.51;51.18;100845.47;5082500;28;20036;-58
2023/01/02 02:07:02;;;;;;;2.50;1.75;;;;;;;18.46;50.79;100844.13;5086358;28;20088;-59
2023/01/02 02:09:41;;;;;;;3.47;1.88;;;;;;;18.50;51.05;100850.03;5071370;28;20105;-59
2023/01/02 02:12:07;;;;;;;3.22;1.90;;;;;;;18.40;50.88;100833.19;5081895;28;20050;-60
2023/01/02 02:14:33;;;;;;;2.42;1.73;;;;;;;18.49;50.79;100845.66;5085540;28;20020;-59
2023/01/02 02:17:03;;;;;;;3.50;2.00;;;;;;;18.49;50.96;100843.78;5070746;28;20048;-59
2023/01/02 02:19:50;;;;;;;3.67;2.20;;;;;;;18.48;51.09;100842.13;5071988;28;20055;-59
2023/01/02 02:22:34;;;;;;;2.80;1.83;;;;;;;18.48;50.78;100842.13;5086619;28;20461;-59
2023/01/02 02:25:37;;;;;;;2.78;1.80;;;;;;;18.48;50.82;100847.50;5083746;28;20028;-59
2023/01/02 02:28:21;;;;;;;3.03;1.80;;;;;;;18.47;50.98;100834.19;5086733;28;20096;-59
2023/01/02 02:30:55;;;;;;;4.22;1.83;;;;;;;18.44;50.98;100838.06;5083817;28;20035;-59
2023/01/02 02:33:52;;;;;;;2.75;1.90;;;;;;;18.46;50.59;100830.66;5070545;28;20032;-57
2023/01/02 02:36:29;;;;;;;3.10;1.98;;;;;;;18.47;50.54;100842.28;5085211;28;20020;-59
2023/01/02 02:39:13;;;;;;;3.22;1.75;;;;;;;18.44;50.95;100834.56;5075421;28;20370;-59
2023/01/02 02:41:53;;;;;;;2.30;1.73;;;;;;;18.44;50.96;100835.38;5065910;28;20055;-59
2023/01/02 02:44:27;;;;;;;2.30;1.70;;;;;;;18.44;50.88;100830.00;5065056;28;20056;-60
2023/01/02 02:47:03;;;;;;;4.35;1.80;;;;;;;18.43;50.79;100831.00;5066149;28;20084;-59
2023/01/02 02:49:44;;;;;;;2.53;1.60;;;;;;;18.44;50.61;100832.69;5078679;28;20131;-60
2023/01/02 02:52:32;;;;;;;2.58;1.75;;;;;;;18.45;50.67;100836.22;5085762;28;20389;-59
2023/01/02 02:55:09;;;;;;;3.00;1.53;;;;;;;18.44;50.64;100834.56;5084395;28;20108;-60
2023/01/02 02:57:34;;;;;;;2.55;1.55;;;;;;;18.43;50.88;100839.06;5069430;28;20274;-60
2023/01/02 03:00:03;;;;;;;3.20;1.85;;;;;;;18.39;50.82;100832.38;5065846;28;20041;-59
2023/01/02 03:02:29;;;;;;;2.45;1.77;;;;;;;18.42;50.82;100832.00;5065682;28;20029;-59
2023/01/02 03:05:04;;;;;;;3.83;1.77;;;;;;;18.38;51.09;100822.56;5064704;28;20029;-60
2023/01/02 03:07:53;;;;;;;3.00;1.90;;;;;;;18.41;50.68;100833.03;5064573;28;20088;-60
2023/01/02 03:10:40;;;;;;;1.73;1.60;;;;;;;18.42;50.68;100833.84;5065004;28;20024;-59
2023/01/02 03:13:36;;;;;;;3.58;1.95;;;;;;;18.41;50.98;100827.63;5065940;28;20056;-59
2023/01/02 03:16:19;;;;;;;2.50;1.80;;;;;;;18.41;50.88;100826.81;5065783;28;20029;-59
2023/01/02 03:18:47;;;;;;;4.88;2.30;;;;;;;18.40;50.76;100823.28;5076167;28;20040;-60
2023/01/02 03:21:20;;;;;;;4.63;2.25;;;;;;;18.40;50.57;100827.81;5066298;28;20056;-60
2023/01/02 03:23:47;;;;;;;3.10;1.88;;;;;;;18.32;50.76;100806.28;5097435;28;20504;-60
2023/01/02 03:26:15;;;;;;;3.15;1.50;;;;;;;18.35;50.86;100812.16;5064886;28;20017;-60
2023/01/02 03:28:43;;;;;;;3.15;1.90;;;;;;;18.38;50.70;100819.88;5097850;28;20063;-59
2023/01/02 03:31:11;;;;;;;3.10;2.00;;;;;;;18.37;50.92;100814.69;5100557;28;20063;-60
2023/01/02 03:33:38;;;;;;;3.17;1.90;;;;;;;18.37;51.04;100814.69;5083079;28;20412;-59
2023/01/02 03:36:09;;;;;;;2.40;1.67;;;;;;;18.37;50.83;100810.13;5084233;28;20111;-59
2023/01/02 03:38:47;;;;;;;2.47;1.60;;;;;;;18.38;50.88;100821.75;5081436;28;20032;-59
2023/01/02 03:41:24;;;;;;;1.77;1.58;;;;;;;18.37;50.59;100818.22;5097281;28;20013;-60
2023/01/02 03:43:51;;;;;;;2.20;1.60;;;;;;;18.33;50.80;100808.78;5097117;28;20091;-60
2023/01/02 03:46:32;;;;;;;2.90;1.88;;;;;;;18.36;50.65;100831.84;5064962;28;20080;-59
2023/01/02 03:49:05;;;;;;;2.42;1.83;;;;;;;18.35;50.72;100825.63;5063365;28;20124;-59
2023/01/02 03:51:31;;;;;;;3.83;2.47;;;;;;;18.36;50.92;100830.00;5077001;28;20040;-59
2023/01/02 03:53:57;;;;;;;2.05;1.63;;;;;;;18.34;50.88;100826.63;5083679;28;20059;-60
2023/01/02 03:56:30;;;;;;;2.55;1.77;;;;;;;18.35;50.98;100833.69;5070241;28;20036;-59
2023/01/02 03:59:24;;;;;;;2.45;1.77;;;;;;;18.34;50.61;100831.16;5063594;28;20151;-59
2023/01/02 04:01:57;;;;;;;2.55;1.80;;;;;;;18.27;50.93;100812.16;5097020;28;20013;-60
2023/01/02 04:04:38;;;;;;;3.13;1.75;;;;;;;18.28;50.58;100815.69;5063801;28;20032;-60
2023/01/02 04:07:07;;;;;;;2.65;2.00;;;;;;;18.33;50.45;100821.41;5065128;28;20037;-60
2023/01/02 04:09:33;;;;;;;3.95;1.95;;;;;;;18.32;50.69;100823.25;5096213;28;20129;-59
2023/01/02 04:12:03;;;;;;;2.60;1.70;;;;;;;18.33;50.61;100832.16;5096925;28;20029;-60
2023/01/02 04:14:37;;;;;;;3.58;1.80;;;;;;;18.16;50.83;100799.84;5076477;28;20082;-60
2023/01/02 04:17:03;;;;;;;3.42;1.65;;;;;;;18.32;50.81;100822.44;5065532;28;20139;-60
2023/01/02 04:19:34;;;;;;;3.28;1.70;;;;;;;18.25;50.55;100822.22;5063288;28;20466;-60
2023/01/02 04:22:03;;;;;;;3.33;1.83;;;;;;;18.30;50.64;100822.56;5063573;28;20439;-60
2023/01/02 04:24:32;;;;;;;;;;;;;;;18.31;50.70;100826.09;5064362;28;20056;-58
2023/01/02 04:27:14;;;;;;;2.67;1.88;;;;;;;18.29;50.86;100823.59;5072711;28;19977;-60
2023/01/02 04:29:39;;;;;;;2.15;1.52;;;;;;;18.27;50.67;100822.94;5083303;28;20050;-60
2023/01/02 04:32:32;;;;;;;3.22;1.55;;;;;;;18.29;50.70;100822.75;5086306;28;20024;-60
2023/01/02 04:34:59;;;;;;;2.20;1.42;;;;;;;18.28;50.54;100826.44;5066400;28;20041;-59
2023/01/02 04:37:37;;;;;;;2.17;1.80;;;;;;;18.29;50.72;100837.03;5099402;28;20029;-59
2023/01/02 04:40:12;;;;;;;3.17;1.67;;;;;;;18.22;50.86;100826.13;5071850;28;20101;-60
2023/01/02 04:42:38;;;;;;;2.65;1.70;;;;;;;18.28;50.53;100832.69;5068532;28;20039;-60
2023/01/02 04:45:03;;;;;;;3.47;1.98;;;;;;;18.28;50.47;100840.75;5086581;28;20425;-59
2023/01/02 04:47:28;;;;;;;1.77;1.50;;;;;;;18.28;50.78;100835.38;5088809;28;20032;-60
2023/01/02 04:49:54;;;;;;;2.53;1.70;;;;;;;18.28;50.81;100831.84;5087931;28;20098;-60
2023/01/02 04:52:19;;;;;;;2.45;1.60;;;;;;;18.28;50.76;100837.22;5088367;28;20077;-60
2023/01/02 04:54:44;;;;;;;3.30;2.58;;;;;;;18.27;50.45;100839.06;5087858;28;20044;-59
2023/01/02 04:57:10;;;;;;;2.78;1.80;;;;;;;18.28;50.68;100842.59;5088511;28;20030;-60
2023/01/02 04:59:35;;;;;;;1.80;1.58;;;;;;;18.23;50.48;100837.72;5073175;28;20037;-60
2023/01/02 05:02:00;;;;;;;2.88;1.65;;;;;;;18.26;50.70;100840.06;5068145;28;20020;-59
2023/01/02 05:04:26;;;;;;;2.50;1.80;;;;;;;18.26;50.45;100842.75;5081217;28;20028;-60
2023/01/02 05:06:51;;;;;;;3.95;2.05;;;;;;;18.26;50.84;100845.44;5080102;28;20029;-60
2023/01/02 05:09:17;;;;;;;2.83;1.60;;;;;;;18.26;50.66;100847.28;5067906;28;20029;-59
2023/01/02 05:11:42;;;;;;;4.03;1.98;;;;;;;18.25;50.98;100841.06;5067529;28;20025;-60
2023/01/02 05:14:07;;;;;;;2.40;1.90;;;;;;;18.24;50.43;100842.94;5067914;28;20024;-60
2023/01/02 05:16:32;;;;;;;2.60;1.50;;;;;;;18.20;50.90;100848.81;5067577;28;20037;-60
2023/01/02 05:18:58;;;;;;;2.38;1.50;;;;;;;18.25;50.65;100867.97;5067893;28;20060;-60
2023/01/02 05:24:07;;;;;;;1.65;1.50;;;;;;;18.24;50.60;100863.63;5047666;28;20043;-60
2023/01/02 05:26:32;;;;;;;2.08;1.50;;;;;;;18.24;50.56;100858.22;5057226;28;20072;-60
2023/01/02 05:28:58;;;;;;;1.90;1.60;;;;;;;18.24;50.86;100860.94;5076853;28;20050;-60
2023/01/02 05:31:23;;;;;;;3.33;1.70;;;;;;;18.23;50.51;100861.94;5087204;28;20434;-60
2023/01/02 05:33:50;;;;;;;4.75;2.08;;;;;;;18.23;50.66;100870.00;5087371;28;20082;-60
2023/01/02 05:36:16;;;;;;;2.97;1.90;;;;;;;18.22;50.76;100866.47;5084485;28;20013;-60
2023/01/02 05:38:41;;;;;;;2.03;1.52;;;;;;;18.22;50.82;100863.78;5067353;28;20112;-60
2023/01/02 05:41:07;;;;;;;2.20;1.70;;;;;;;18.23;50.64;100870.00;5065012;28;20021;-60
2023/01/02 05:43:34;;;;;;;1.85;1.63;;;;;;;18.22;50.57;100862.91;5047043;28;20382;-60
2023/01/02 05:46:11;;;;;;;2.17;1.60;;;;;;;18.20;50.64;100860.41;5047071;28;20068;-59
2023/01/02 05:48:36;;;;;;;3.95;1.60;;;;;;;18.21;50.69;100869.31;5047265;28;20063;-59
2023/01/02 05:51:05;;;;;;;2.88;1.60;;;;;;;18.20;50.82;100876.56;5047416;28;20030;-60
2023/01/02 05:53:31;;;;;;;;;;;;;;;18.21;50.92;100866.63;5047411;28;20033;-60
2023/01/02 05:56:06;;;;;;;3.08;2.03;;;;;;;18.20;50.90;100865.78;5047320;28;19981;-60
2023/01/02 05:58:37;;;;;;;3.00;1.70;;;;;;;18.21;50.48;100869.31;5067335;28;20017;-60
2023/01/02 06:01:16;;;;;;;2.42;1.60;;;;;;;18.20;50.88;100862.25;5046882;28;20017;-60
2023/01/02 06:04:03;;;;;;;3.17;1.60;;;;;;;18.20;50.86;100870.34;5063929;28;20083;-60
2023/01/02 06:06:35;;;;;;;4.47;2.05;;;;;;;18.20;50.94;100867.66;5063056;28;20466;-60
2023/01/02 06:09:02;;;;;;;2.13;1.60;;;;;;;18.21;51.23;100861.25;5061449;28;20136;-60
2023/01/02 06:11:28;;;;;;;1.95;1.48;;;;;;;18.20;50.88;100867.66;5059946;28;20018;-60
2023/01/02 06:13:53;;;;;;;3.35;1.83;;;;;;;18.21;50.98;100869.31;5065789;28;20037;-60
2023/01/02 06:16:19;;;;;;;3.40;1.50;;;;;;;18.22;51.28;100868.31;5064706;28;20037;-60
2023/01/02 06:18:45;;;;;;;5.00;1.63;;;;;;;18.22;51.24;100861.09;5066090;28;20029;-60
2023/01/02 06:21:12;;;;;;;2.08;1.77;;;;;;;18.23;51.22;100867.31;5066230;28;20025;-60
2023/01/02 06:23:38;;;;;;;2.30;1.40;;;;;;;18.23;51.45;100873.53;5065724;28;20058;-60
2023/01/02 06:26:07;;;;;;;2.28;1.50;;;;;;;18.25;51.50;100876.06;5065544;28;20078;-60
2023/01/02 06:28:32;;;;;;;2.17;1.98;;;;;;;18.24;51.56;100872.53;5064491;28;20084;-59
2023/01/02 06:31:01;;;;;;;1.98;1.60;;;;;;;18.26;51.93;100871.50;5065376;28;20049;-60
2023/01/02 06:33:28;;;;;;;3.50;2.20;;;;;;;18.25;51.68;100873.38;5066013;28;20025;-60
2023/01/02 06:36:01;;;;;;;4.30;2.03;;;;;;;18.26;51.68;100868.81;5065918;28;20087;-60
2023/01/02 06:38:27;;;;;;;3.17;1.77;;;;;;;18.26;51.80;100872.34;5062374;28;20020;-60
2023/01/02 06:40:59;;;;;;;2.50;1.67;;;;;;;18.27;51.72;100884.81;5065450;28;20036;-60
2023/01/02 06:43:26;;;;;;;2.55;1.67;;;;;;;18.28;52.15;100897.28;5063920;28;20017;-60
2023/01/02 06:45:51;;;;;;;4.78;1.52;;;;;;;18.28;52.02;100897.28;5064993;28;20021;-59
2023/01/02 06:48:17;;;;;;;2.45;1.50;;;;;;;18.28;51.67;100907.19;5065378;28;20489;-60
2023/01/02 06:50:43;;;;;;;3.75;1.80;;;;;;;18.26;52.06;100946.88;5065196;28;20025;-60
2023/01/02 06:53:09;;;;;;;2.78;1.48;;;;;;;18.29;52.08;100979.69;5065054;28;20020;-60
2023/01/02 06:55:34;;;;;;;2.95;1.70;;;;;;;18.29;51.75;100984.22;5062938;28;20038;-60
2023/01/02 06:57:59;;;;;;;1.60;1.50;;;;;;;18.22;51.97;100989.41;5065274;28;20024;-60
2023/01/02 07:00:25;;;;;;;2.70;1.80;;;;;;;18.28;51.72;101002.22;5065194;28;20032;-60
2023/01/02 07:02:50;;;;;;;2.63;1.50;;;;;;;18.30;52.21;100999.38;5065540;28;20093;-60
2023/01/02 07:05:15;;;;;;;1.50;1.30;;;;;;;18.29;52.20;101012.00;5065059;28;20024;-60
2023/01/02 07:07:41;;;;;;;4.40;3.05;;;;;;;18.29;52.16;101013.84;5065253;28;20500;-60
2023/01/02 07:10:06;;;;;;;1.60;1.40;;;;;;;18.30;52.27;101028.97;5064638;28;20025;-60
2023/01/02 07:12:36;;;;;;;4.00;1.48;;;;;;;18.29;52.04;101038.91;5064944;28;20039;-60
2023/01/02 07:15:05;;;;;;;2.65;1.58;;;;;;;18.30;52.03;101047.81;5066264;28;20060;-60
2023/01/02 07:17:31;;;;;;;2.80;1.58;;;;;;;18.30;52.05;101063.97;5062702;28;20112;-60
2023/01/02 07:19:56;;;;;;;2.15;1.52;;;;;;;18.30;52.33;101059.41;5065041;28;20117;-60
2023/01/02 07:22:22;;;;;;;2.42;1.25;;;;;;;18.29;52.17;101063.13;5064993;28;20021;-57
2023/01/02 07:24:47;;;;;;;3.58;1.80;;;;;;;18.29;52.04;101076.59;5063005;28;20025;-60
2023/01/02 07:27:12;;;;;;;2.60;1.77;;;;;;;18.30;52.50;101085.50;5064829;28;20160;-60
2023/01/02 07:29:37;;;;;;;2.38;1.80;;;;;;;18.28;52.02;101082.97;5065053;28;20041;-60
2023/01/02 07:32:03;;;;;;;1.65;1.42;;;;;;;18.28;52.21;101084.84;5064864;28;20093;-53
2023/01/02 07:34:28;;;;;;;1.98;1.30;;;;;;;18.29;51.84;101078.44;5061459;28;20025;-60
2023/01/02 07:36:53;;;;;;;1.67;1.45;;;;;;;18.29;52.25;101108.03;5064480;28;20031;-61
2023/01/02 07:39:19;;;;;;;2.22;1.25;;;;;;;18.27;52.23;101121.66;5064419;28;20523;-61
2023/01/02 07:41:44;;;;;;;2.58;1.40;;;;;;;18.27;52.16;101132.44;5064018;28;20096;-60
2023/01/02 07:44:09;;;;;;;2.78;1.38;;;;;;;18.28;52.21;101149.44;5064169;28;20021;-60
2023/01/02 07:46:35;;;;;;;2.67;1.52;;;;;;;18.26;52.13;101154.09;5064316;28;20080;-60
2023/01/02 07:49:00;;;;;;;1.75;1.35;;;;;;;18.27;51.89;101148.59;5064065;28;20106;-60
2023/01/02 07:51:25;;;;;;;2.45;1.30;;;;;;;18.24;52.01;101151.59;5065325;28;20076;-60
2023/01/02 07:53:50;;;;;;;2.83;1.10;;;;;;;18.23;52.01;101149.91;5064528;28;20021;-60
2023/01/02 07:56:16;;;;;;;1.75;1.15;;;;;;;18.19;52.31;101146.69;5063740;28;20025;-61
2023/01/02 07:58:41;;;;;;;1.20;1.10;;;;;;;18.23;52.09;101168.75;5064407;28;20051;-60
2023/01/02 08:01:09;;;;;;;1.25;1.10;;;;;;;18.24;51.80;101178.50;5064032;28;20040;-60
2023/01/02 08:03:35;;;;;;;2.03;1.13;;;;;;;18.22;51.87;101184.06;5062656;28;20021;-60
2023/01/02 08:06:05;;;;;;;2.95;1.75;;;;;;;18.19;52.05;101192.44;5060742;28;20134;-61
2023/01/02 08:08:30;;;;;;;1.33;1.10;;;;;;;18.18;51.99;101188.06;5064800;28;20114;-60
2023/01/02 08:10:56;;;;;;;2.13;1.27;;;;;;;18.21;51.84;101203.88;5063851;28;20033;-60
2023/01/02 08:13:21;;;;;;;2.40;1.30;;;;;;;18.20;52.16;101212.13;5064768;28;20115;-60
2023/01/02 08:15:46;;;;;;;1.55;1.20;;;;;;;18.22;51.83;101219.03;5063781;28;20029;-60
2023/01/02 08:18:11;;;;;;;1.70;1.00;;;;;;;18.22;51.63;101226.25;5064957;28;20029;-60
2023/01/02 08:20:37;;;;;;;2.78;1.35;;;;;;;18.21;51.75;101235.31;5064331;28;20028;-60
2023/01/02 08:23:02;;;;;;;3.97;1.08;;;;;;;18.15;51.94;101226.03;5064582;28;20761;-60
2023/01/02 08:25:27;;;;;;;2.33;1.17;;;;;;;18.20;52.01;101239.88;5063657;28;20025;-60
2023/01/02 08:27:52;;;;;;;4.05;1.20;;;;;;;18.18;52.04;101252.66;5058936;28;20041;-59
2023/01/02 08:30:18;;;;;;;1.88;1.20;;;;;;;18.19;51.94;101254.34;5061461;28;20029;-61
2023/01/02 08:32:43;;;;;;;2.72;1.08;;;;;;;18.20;52.04;101260.56;5063766;28;20025;-59
2023/01/02 08:35:08;;;;;;;1.27;0.90;;;;;;;18.17;52.17;101279.69;5063803;28;20020;-60
2023/01/02 08:37:34;;;;;;;3.05;1.02;;;;;;;18.19;52.03;101277.72;5060549;28;20036;-59
2023/01/02 08:39:59;;;;;;;1.67;0.80;;;;;;;18.18;52.45;101284.06;5057623;28;20060;-60
2023/01/02 08:42:24;;;;;;;1.67;1.00;;;;;;;18.17;52.35;101296.69;5064112;28;20037;-60
2023/01/02 08:44:50;;;;;;;2.13;0.88;;;;;;;18.19;52.19;101296.56;5063119;28;20493;-59
2023/01/02 08:47:15;;;;;;;1.90;1.00;;;;;;;18.20;52.47;101304.47;5064028;28;20036;-59
2023/01/02 08:49:40;;;;;;;2.30;1.10;;;;;;;18.21;52.40;101313.38;5063822;28;20057;-59
2023/01/02 08:52:05;;;;;;;1.67;1.10;;;;;;;18.21;52.46;101324.13;5074674;28;20032;-59
2023/01/02 08:54:31;;;;;;;1.48;1.08;;;;;;;18.20;52.28;101330.53;5066215;28;20378;-59
2023/01/02 08:56:56;;;;;;;1.02;0.90;;;;;;;18.20;52.55;101328.69;5063711;28;20040;-59
2023/01/02 08:59:23;;;;;;;1.25;1.15;;;;;;;18.19;52.18;101332.38;5063991;28;20063;-59
2023/01/02 09:01:49;;;;;;;2.42;1.00;;;;;;;18.17;52.31;101334.38;5063798;28;20021;-59
2023/01/02 09:04:14;;;;;;;1.35;1.08;;;;;;;18.20;52.58;101338.59;5063843;28;20080;-59
2023/01/02 09:06:40;;;;;;;1.27;0.90;;;;;;;18.22;52.60;101340.16;5058577;28;20025;-59
2023/01/02 09:09:06;;;;;;;2.00;0.93;;;;;;;18.24;52.61;101353.44;5062615;28;20040;-59
2023/01/02 09:11:34;;;;;;;1.10;0.77;;;;;;;18.24;53.03;101354.28;5061723;28;20029;-60
2023/01/02 09:14:00;;;;;;;2.53;0.90;;;;;;;18.24;52.74;101356.97;5062458;28;20088;-60
2023/01/02 09:16:26;;;;;;;2.97;0.98;;;;;;;18.24;53.09;101361.53;5063533;28;20270;-62
2023/01/02 09:18:51;;;;;;;1.80;1.10;;;;;;;18.16;52.90;101351.53;5068732;28;20075;-61
2023/01/02 09:21:17;;;;;;;1.50;1.05;;;;;;;18.27;53.03;101381.91;5071619;28;20410;-59
2023/01/02 09:23:42;;;;;;;0.95;0.80;;;;;;;18.28;52.96;101379.06;5065352;28;20114;-59
2023/01/02 09:26:11;;;;;;;2.25;0.90;;;;;;;18.29;53.07;101390.66;5065274;28;20024;-60
2023/01/02 09:28:36;;;;;;;1.63;1.48;;;;;;;18.25;53.11;101387.44;5067060;28;20056;-59
2023/01/02 09:31:06;;;;;;;2.83;0.90;;;;;;;18.28;53.21;101392.53;5066586;28;20044;-60
2023/01/02 09:33:31;;;;;;;1.35;0.70;;;;;;;18.31;52.82;101410.19;5066946;28;20047;-59
2023/01/02 09:36:01;;;;;;;1.48;0.90;;;;;;;18.30;52.96;101411.19;5067056;28;20040;-58
2023/01/02 09:38:26;;;;;;;2.47;0.90;;;;;;;18.28;53.45;101399.75;5065620;28;20013;-59
2023/01/02 09:40:52;;;;;;;1.13;0.98;;;;;;;18.33;52.84;101400.97;5066422;28;20021;-60
2023/01/02 09:43:30;;;;;;;0.88;0.88;;;;;;;18.32;52.94;101412.75;5065729;28;20028;-61
2023/01/02 09:45:57;;;;;;;1.13;0.82;;;;;;;18.36;52.84;101416.00;5066286;28;20101;-61
2023/01/02 09:48:32;;;;;;;1.00;0.80;;;;;;;18.37;52.48;101428.44;5065951;28;20044;-61
2023/01/02 09:50:57;;;;;;;2.03;1.15;;;;;;;18.37;52.64;101433.81;5074397;28;20404;-63
2023/01/02 09:53:22;;;;;;;0.70;0.68;;;;;;;18.36;52.33;101434.84;5066501;28;20076;-62
2023/01/02 09:56:12;;;;;;;1.00;0.98;;;;;;;18.38;52.33;101446.28;5065234;28;20029;-62
2023/01/02 09:59:06;;;;;;;0.88;0.70;;;;;;;18.39;52.28;101459.59;5065386;28;20071;-62
2023/01/02 10:01:34;;;;;;;0.70;0.70;;;;;;;18.41;52.35;101462.13;5054896;28;20111;-60
2023/01/02 10:04:37;;;;;;;1.63;0.80;;;;;;;18.41;52.16;101468.38;5065908;28;20051;-61
2023/01/02 10:07:12;;;;;;;0.85;0.70;;;;;;;18.42;52.27;101472.75;5066216;28;20025;-61
2023/01/02 10:09:40;;;;;;;0.73;0.60;;;;;;;18.43;51.89;101469.03;5064455;28;20025;-61
2023/01/02 10:12:24;;;;;;;1.17;0.70;;;;;;;18.42;51.99;101464.66;5065580;28;20025;-61
2023/01/02 10:14:52;;;;;;;1.58;0.85;;;;;;;18.47;51.97;101481.22;5047930;28;20553;-60
2023/01/02 10:17:19;;;;;;;1.07;0.70;;;;;;;18.49;51.90;101481.06;5066180;28;20075;-61
2023/01/02 10:19:49;;;;;;;1.40;0.70;;;;;;;18.51;51.60;101484.44;5066639;28;20036;-59
2023/01/02 10:22:27;;;;;;;2.58;0.70;;;;;;;18.50;51.61;101488.16;5078534;28;20025;-60
2023/01/02 10:25:08;;;;;;;0.68;0.63;;;;;;;18.50;51.74;101482.75;5046927;28;20025;-61
2023/01/02 10:27:42;;;;;;;1.83;0.65;;;;;;;18.54;51.43;101491.38;5063966;28;20040;-61
2023/01/02 10:30:22;;;;;;;0.60;0.60;;;;;;;18.54;51.73;101492.22;5064202;28;20028;-61
2023/01/02 10:33:01;;;;;;;0.73;0.50;;;;;;;18.55;51.52;101499.31;5063869;28;20052;-61
2023/01/02 10:35:43;;;;;;;;;;;;;;;18.38;51.27;101474.03;5061306;28;20025;-61
2023/01/02 10:38:15;;;;;;;0.60;0.60;;;;;;;18.57;51.14;101491.94;5088616;28;19917;-61
2023/01/02 10:40:43;;;;;;;0.70;0.70;;;;;;;18.53;51.36;101481.63;5089388;28;20029;-61
2023/01/02 10:43:09;;;;;;;0.70;0.60;;;;;;;18.57;51.21;101477.63;5080746;28;20013;-61
2023/01/02 10:45:35;;;;;;;1.00;0.73;;;;;;;18.61;51.07;101489.78;5063841;28;20091;-60
2023/01/02 10:48:00;;;;;;;0.90;0.60;;;;;;;18.63;51.23;101491.31;5065520;28;20036;-61
2023/01/02 10:50:29;;;;;;;1.00;0.68;;;;;;;18.64;50.76;101481.38;5071303;28;20040;-60
2023/01/02 10:53:07;;;;;;;1.58;0.70;;;;;;;18.67;50.98;101481.94;5074501;28;20120;-62
2023/01/02 10:55:36;;;;;;;1.45;0.98;;;;;;;18.69;50.52;101476.38;5064519;28;20366;-59
2023/01/02 10:58:04;;;;;;;1.00;0.60;;;;;;;18.64;50.74;101467.91;5054630;28;20071;-59
2023/01/02 11:00:31;;;;;;;0.70;0.70;;;;;;;18.72;50.92;101474.25;5058405;28;20021;-60
2023/01/02 11:03:06;;;;;;;0.77;0.60;;;;;;;18.75;50.87;101473.13;5065187;28;20024;-62
2023/01/02 11:05:32;;;;;;;0.50;0.50;;;;;;;18.78;50.52;101483.59;5065474;28;20017;-62
2023/01/02 11:07:57;;;;;;;1.23;0.82;;;;;;;18.80;50.39;101483.44;5064371;28;20046;-59
2023/01/02 11:10:32;;;;;;;1.52;0.80;;;;;;;18.81;50.66;101494.03;5063065;28;20083;-59
2023/01/02 11:13:02;;;;;;;0.70;0.70;;;;;;;18.82;50.25;101509.22;5064910;28;20036;-59
2023/01/02 11:15:29;;;;;;;1.40;0.77;;;;;;;18.85;50.55;101506.22;5064887;28;20120;-60
2023/01/02 11:17:56;;;;;;;2.13;0.60;;;;;;;18.87;50.72;101508.78;5064580;28;20029;-60
2023/01/02 11:20:33;;;;;;;1.15;0.63;;;;;;;18.88;50.48;101514.00;5064355;28;20025;-60
2023/01/02 11:23:00;;;;;;;0.57;0.52;;;;;;;18.88;50.58;101508.59;5055089;28;20254;-60
2023/01/02 11:25:35;;;;;;;1.73;0.80;;;;;;;18.89;50.08;101507.59;5097142;28;20039;-61
2023/01/02 11:28:01;;;;;;;1.33;0.57;;;;;;;18.90;50.23;101511.13;5065042;28;20025;-61
2023/01/02 11:30:28;;;;;;;0.50;0.50;;;;;;;18.91;50.40;101531.72;5065001;28;20025;-66
2023/01/02 11:33:06;;;;;;;1.30;0.82;;;;;;;18.91;50.29;101537.09;5063074;28;20040;-60
2023/01/02 11:35:44;;;;;;;0.60;0.60;;;;;;;18.92;50.42;101541.47;5062414;28;20024;-61
2023/01/02 11:38:15;;;;;;;0.80;0.50;;;;;;;18.94;50.17;101543.00;5062204;28;20017;-61
2023/01/02 11:40:59;;;;;;;2.63;0.70;;;;;;;18.94;49.91;101543.00;5063609;28;20033;-61